createdAt,value
2022-09-07T00:01:13.308Z,56.3
2022-09-07T00:05:45.616Z,56.1
2022-09-07T00:10:52.002Z,56.7
2022-09-07T00:16:08.475Z,57.1
2022-09-07T00:21:14.787Z,57.5
2022-09-07T00:36:34.035Z,58.9
2022-09-07T00:42:00.480Z,62.7
2022-09-07T00:46:46.938Z,65.8
2022-09-07T00:51:53.207Z,65.1
2022-09-07T00:56:59.591Z,65.0
2022-09-07T01:07:32.478Z,64.7
2022-09-07T01:12:18.818Z,64.8
2022-09-07T01:17:25.321Z,64.9
2022-09-07T01:27:38.092Z,65.5
2022-09-07T01:32:44.484Z,66.6
2022-09-07T01:37:55.036Z,65.9
2022-09-07T01:42:57.288Z,66.4
2022-09-07T01:48:03.671Z,66.4
2022-09-07T01:53:00.095Z,66.5
2022-09-07T01:58:16.616Z,66.9
2022-09-07T02:03:23.039Z,66.7
2022-09-07T02:08:29.518Z,66.9
2022-09-07T02:13:35.804Z,67.1
2022-09-07T02:18:32.161Z,67.9
2022-09-07T02:23:48.644Z,68.1
2022-09-07T02:34:01.540Z,68.0
2022-09-07T02:39:07.901Z,68.2
2022-09-07T02:49:10.637Z,68.0
2022-09-07T02:54:27.041Z,68.0
2022-09-07T02:59:33.435Z,68.0
2022-09-07T03:04:39.935Z,68.8
2022-09-07T03:09:47.460Z,68.1
2022-09-07T03:14:43.878Z,68.3
2022-09-07T03:21:02.394Z,68.4
2022-09-07T03:26:06.773Z,68.5
2022-09-07T03:30:13.103Z,68.7
2022-09-07T03:45:32.235Z,68.5
2022-09-07T03:51:02.769Z,68.7
2022-09-07T03:55:45.207Z,68.9
2022-09-07T04:05:57.965Z,69.1
2022-09-07T04:11:04.355Z,69.1
2022-09-07T04:16:00.712Z,69.1
2022-09-07T04:21:21.125Z,69.2
2022-09-07T04:26:23.496Z,69.4
2022-09-07T04:31:53.046Z,69.6
2022-09-07T04:36:26.512Z,69.5
2022-09-07T04:42:02.944Z,69.6
2022-09-07T04:51:55.746Z,70.1
2022-09-07T04:56:52.108Z,70.2
2022-09-07T05:02:08.560Z,70.1
2022-09-07T05:07:04.874Z,70.1
2022-09-07T05:12:21.273Z,70.1
2022-09-07T05:17:27.654Z,70.2
2022-09-07T05:22:58.086Z,70.3
2022-09-07T05:27:40.426Z,70.2
2022-09-07T05:33:00.907Z,70.2
2022-09-07T05:37:43.155Z,70.7
2022-09-07T05:43:13.600Z,71.3
2022-09-07T05:48:05.087Z,71.3
2022-09-07T05:53:36.624Z,71.3
2022-09-07T05:58:08.952Z,71.5
2022-09-07T06:03:25.454Z,71.9
2022-09-07T06:08:55.801Z,72.6
2022-09-07T06:13:38.138Z,72.9
2022-09-07T06:18:44.517Z,72.8
2022-09-07T06:23:50.926Z,72.8
2022-09-07T06:34:03.765Z,73.0
2022-09-07T06:39:10.141Z,73.1
2022-09-07T06:44:16.651Z,75.0
2022-09-07T06:59:34.780Z,78.1
2022-09-07T07:05:26.261Z,77.4
2022-09-07T07:09:48.570Z,78.8
2022-09-07T07:15:18.977Z,77.5
2022-09-07T07:20:21.366Z,77.0
2022-09-07T07:25:07.710Z,76.8
2022-09-07T07:30:14.095Z,78.0
2022-09-07T07:35:10.484Z,76.6
2022-09-07T07:40:19.048Z,77.0
2022-09-07T07:50:43.666Z,75.8
2022-09-07T07:55:43.792Z,74.2
2022-09-07T08:00:54.629Z,74.9
2022-09-07T08:05:48.810Z,76.6
2022-09-07T08:11:04.201Z,77.3
2022-09-07T08:16:01.653Z,77.4
2022-09-07T08:21:17.085Z,76.0
2022-09-07T08:31:30.872Z,73.2
2022-09-07T08:41:43.593Z,72.4
2022-09-07T08:46:50.145Z,72.1
2022-09-07T08:51:56.390Z,71.7
2022-09-07T08:57:22.627Z,72.7
2022-09-07T09:07:15.545Z,73.5
2022-09-07T09:12:21.978Z,74.0
2022-09-07T09:17:28.494Z,74.3
2022-09-07T09:32:37.947Z,75.1
2022-09-07T09:38:38.495Z,75.4
2022-09-07T09:43:00.777Z,75.4
2022-09-07T09:48:07.159Z,75.9
2022-09-07T09:53:03.533Z,76.0
2022-09-07T10:03:59.532Z,76.6
2022-09-07T10:08:32.977Z,76.2
2022-09-07T10:13:43.215Z,76.8
2022-09-07T10:18:45.503Z,76.9
2022-09-07T10:24:52.146Z,78.2
2022-09-07T10:29:18.460Z,78.2
2022-09-07T10:44:07.538Z,81.2
2022-09-07T10:49:23.972Z,81.0
2022-09-07T10:54:44.462Z,79.7
2022-09-07T11:14:46.083Z,74.8
2022-09-07T11:20:36.584Z,71.9
2022-09-07T11:25:46.684Z,70.1
2022-09-07T11:30:50.429Z,68.4
2022-09-07T11:35:46.796Z,68.1
2022-09-07T11:41:03.192Z,70.0
2022-09-07T11:46:09.626Z,68.1
2022-09-07T11:51:40.077Z,66.6
2022-09-07T11:56:46.468Z,64.8
2022-09-07T12:01:28.954Z,63.7
2022-09-07T12:06:35.444Z,63.4
2022-09-07T12:16:48.306Z,63.5
2022-09-07T12:21:54.685Z,61.4
2022-09-07T12:27:01.097Z,60.5
2022-09-07T12:32:53.251Z,61.1
2022-09-07T12:37:33.871Z,60.6
2022-09-07T12:42:40.279Z,61.0
2022-09-07T12:47:54.635Z,61.1
2022-09-07T12:52:22.972Z,61.5
2022-09-07T12:57:39.374Z,61.8
2022-09-07T13:02:59.798Z,62.6
2022-09-07T13:07:42.160Z,63.4
2022-09-07T13:12:57.426Z,63.1
2022-09-07T13:18:29.089Z,63.1
2022-09-07T13:23:01.368Z,63.3
2022-09-07T13:28:16.766Z,63.6
2022-09-07T13:33:14.169Z,64.3
2022-09-07T13:38:20.582Z,64.2
2022-09-07T13:43:35.954Z,64.5
2022-09-07T13:48:43.450Z,64.6
2022-09-07T13:53:49.957Z,64.9
2022-09-07T13:58:56.316Z,65.2
2022-09-07T14:04:02.822Z,65.0
2022-09-07T14:09:09.234Z,65.2
2022-09-07T14:14:19.593Z,65.1
2022-09-07T14:19:21.965Z,64.5
2022-09-07T14:24:18.346Z,64.1
2022-09-07T14:29:34.759Z,63.7
2022-09-07T14:34:41.155Z,63.4
2022-09-07T14:39:47.613Z,63.3
2022-09-07T14:44:55.123Z,63.4
2022-09-07T14:55:10.278Z,63.2
2022-09-07T15:05:47.156Z,63.3
2022-09-07T15:10:29.584Z,63.2
2022-09-07T15:15:48.909Z,63.3
2022-09-07T15:20:42.275Z,63.2
2022-09-07T15:25:50.868Z,63.3
2022-09-07T15:30:45.259Z,63.3
2022-09-07T15:36:01.434Z,63.1
2022-09-07T15:46:04.506Z,63.3
2022-09-07T15:56:41.472Z,63.3
2022-09-07T16:07:04.793Z,63.3
2022-09-07T16:11:50.219Z,63.5
2022-09-07T16:21:48.860Z,63.7
2022-09-07T16:27:05.289Z,63.6
2022-09-07T16:37:19.105Z,63.5
2022-09-07T16:42:25.614Z,63.7
2022-09-07T16:52:58.527Z,64.1
2022-09-07T17:02:50.303Z,64.5
2022-09-07T17:07:57.702Z,65.0
2022-09-07T17:13:08.786Z,64.8
2022-09-07T17:18:10.487Z,65.2
2022-09-07T17:23:16.830Z,65.7
2022-09-07T17:28:23.764Z,65.8
2022-09-07T17:33:30.189Z,65.8
2022-09-07T17:43:45.733Z,66.6
2022-09-07T17:49:19.241Z,66.6
2022-09-07T17:53:58.665Z,67.6
2022-09-07T18:04:00.283Z,68.2
2022-09-07T18:11:44.971Z,68.2
2022-09-07T18:15:42.407Z,68.6
2022-09-07T18:30:24.497Z,69.0
2022-09-07T18:40:38.456Z,69.3
2022-09-07T18:45:44.838Z,69.5
2022-09-07T18:50:51.241Z,69.9
2022-09-07T18:55:57.638Z,70.8
2022-09-07T19:01:28.288Z,70.4
2022-09-07T19:06:10.404Z,70.3
2022-09-07T19:11:40.823Z,70.4
2022-09-07T19:16:57.432Z,70.7
2022-09-07T19:22:04.788Z,70.7
2022-09-07T19:27:11.167Z,70.6
2022-09-07T19:32:07.817Z,70.8
2022-09-07T19:37:24.140Z,70.9
2022-09-07T19:47:37.132Z,71.2
2022-09-07T19:52:47.495Z,71.1
2022-09-07T19:57:39.919Z,71.3
2022-09-07T20:03:00.363Z,71.5
2022-09-07T20:08:02.731Z,71.6
2022-09-07T20:13:08.110Z,71.5
2022-09-07T20:18:15.525Z,71.5
2022-09-07T20:23:21.915Z,71.8
2022-09-07T20:30:33.581Z,72.1
2022-09-07T20:35:57.054Z,72.1
2022-09-07T20:45:11.814Z,73.1
2022-09-07T20:50:19.286Z,72.4
2022-09-07T20:55:17.388Z,72.6
2022-09-07T21:00:37.811Z,73.0
2022-09-07T21:06:04.183Z,72.8
2022-09-07T21:10:46.560Z,73.0
2022-09-07T21:15:52.987Z,72.9
2022-09-07T21:21:23.371Z,73.1
2022-09-07T21:26:05.724Z,73.3
2022-09-07T21:31:02.136Z,73.3
2022-09-07T21:36:08.487Z,73.4
2022-09-07T21:46:45.454Z,73.8
2022-09-07T21:51:27.733Z,73.8
2022-09-07T21:56:33.144Z,73.8
2022-09-07T22:01:50.619Z,74.0
2022-09-07T22:06:58.462Z,74.1
2022-09-07T22:11:54.946Z,74.3
2022-09-07T22:17:25.355Z,74.2
2022-09-07T22:32:20.567Z,74.6
2022-09-07T22:42:33.350Z,74.6
2022-09-07T22:47:53.756Z,74.6
2022-09-07T22:52:56.156Z,74.7
2022-09-07T22:58:02.633Z,74.7
2022-09-07T23:02:58.969Z,74.7
2022-09-07T23:08:15.384Z,74.8
2022-09-07T23:18:18.227Z,74.8
2022-09-07T23:23:35.021Z,74.9
2022-09-07T23:29:05.193Z,75.0
2022-09-07T23:34:11.559Z,75.0
2022-09-07T23:44:00.270Z,75.1
2022-09-07T23:49:06.681Z,75.0
2022-09-07T23:54:17.030Z,74.9
2022-09-07T23:59:19.400Z,75.1
